Terminal Aerodrome Forecast
Issued by NWS Des Moines, IA

Home | Current Version | Previous Version | Text Only | Print | Product List | Glossary On
Versions: 1 2 3 4 5 6 7 8 9 10 11 12 13 14 15 16 17 18 19 20 21 22 23 24 25 26 27 28 29 30 31 32 33 34 35 36 37 38 39 40 41
000
FTUS43 KDMX 291124
TAFDSM
TAF
KDSM 291124Z 2912/3012 18008KT P6SM FEW035 SCT100
     FM291400 22009KT P6SM SCT030 BKN120
     FM292200 23008KT P6SM VCSH SCT030 BKN080
     FM300400 33007KT 6SM BR VCSH BKN020 OVC035
     FM300900 34009KT P6SM BKN016 OVC028=

USA.gov is the U.S. government's official web portal to all federal, state and local government web resources and services.